sensor_id;sensor_type;location;lat;lon;timestamp;temperature;humidity
72883;DHT22;61017;37.812;-122.286;2024-01-15T00:00:57;15.30;90.40
72883;DHT22;61017;37.812;-122.286;2024-01-15T00:02:28;15.30;90.40
72883;DHT22;61017;37.812;-122.286;2024-01-15T00:03:59;15.30;90.40
72883;DHT22;61017;37.812;-122.286;2024-01-15T00:05:31;15.30;90.40
72883;DHT22;61017;37.812;-122.286;2024-01-15T00:07:02;15.30;90.40
72883;DHT22;61017;37.812;-122.286;2024-01-15T00:08:33;15.30;90.40
72883;DHT22;61017;37.812;-122.286;2024-01-15T00:10:05;15.30;90.40
72883;DHT22;61017;37.812;-122.286;2024-01-15T00:11:36;15.30;90.40
72883;DHT22;61017;37.812;-122.286;2024-01-15T00:13:07;15.30;90.30
72883;DHT22;61017;37.812;-122.286;2024-01-15T00:14:38;15.30;90.30
72883;DHT22;61017;37.812;-122.286;2024-01-15T00:16:09;15.30;90.40
72883;DHT22;61017;37.812;-122.286;2024-01-15T00:17:43;15.30;90.50
72883;DHT22;61017;37.812;-122.286;2024-01-15T00:19:14;15.30;90.50
72883;DHT22;61017;37.812;-122.286;2024-01-15T00:20:45;15.30;90.50
72883;DHT22;61017;37.812;-122.286;2024-01-15T00:22:16;15.30;90.40
72883;DHT22;61017;37.812;-122.286;2024-01-15T00:23:47;15.30;90.40
72883;DHT22;61017;37.812;-122.286;2024-01-15T00:25:19;15.30;90.40
72883;DHT22;61017;37.812;-122.286;2024-01-15T00:26:50;15.30;90.50
72883;DHT22;61017;37.812;-122.286;2024-01-15T00:28:22;15.30;90.50
72883;DHT22;61017;37.812;-122.286;2024-01-15T00:29:53;15.30;90.50
72883;DHT22;61017;37.812;-122.286;2024-01-15T00:31:24;15.30;90.50
72883;DHT22;61017;37.812;-122.286;2024-01-15T00:32:55;15.40;90.50
72883;DHT22;61017;37.812;-122.286;2024-01-15T00:34:26;15.40;90.50
72883;DHT22;61017;37.812;-122.286;2024-01-15T00:35:57;15.40;90.50
72883;DHT22;61017;37.812;-122.286;2024-01-15T00:37:28;15.40;90.50
72883;DHT22;61017;37.812;-122.286;2024-01-15T00:38:59;15.30;90.50
72883;DHT22;61017;37.812;-122.286;2024-01-15T00:40:30;15.30;90.40
72883;DHT22;61017;37.812;-122.286;2024-01-15T00:42:01;15.40;90.50
72883;DHT22;61017;37.812;-122.286;2024-01-15T00:43:32;15.40;90.60
72883;DHT22;61017;37.812;-122.286;2024-01-15T00:45:03;15.40;90.40
72883;DHT22;61017;37.812;-122.286;2024-01-15T00:46:42;15.40;90.50
72883;DHT22;61017;37.812;-122.286;2024-01-15T00:48:14;15.40;90.40
72883;DHT22;61017;37.812;-122.286;2024-01-15T00:49:45;15.40;90.50
72883;DHT22;61017;37.812;-122.286;2024-01-15T00:51:16;15.40;90.50
72883;DHT22;61017;37.812;-122.286;2024-01-15T00:52:50;15.40;90.50
72883;DHT22;61017;37.812;-122.286;2024-01-15T00:54:22;15.40;90.50
72883;DHT22;61017;37.812;-122.286;2024-01-15T00:55:53;15.40;90.50
72883;DHT22;61017;37.812;-122.286;2024-01-15T00:57:24;15.40;90.50
72883;DHT22;61017;37.812;-122.286;2024-01-15T00:58:55;15.40;90.50
72883;DHT22;61017;37.812;-122.286;2024-01-15T01:00:26;15.40;90.50
72883;DHT22;61017;37.812;-122.286;2024-01-15T01:01:57;15.40;90.50
72883;DHT22;61017;37.812;-122.286;2024-01-15T01:03:32;15.40;90.50
72883;DHT22;61017;37.812;-122.286;2024-01-15T01:05:04;15.40;90.60
72883;DHT22;61017;37.812;-122.286;2024-01-15T01:06:37;15.30;90.40
72883;DHT22;61017;37.812;-122.286;2024-01-15T01:08:08;15.40;90.50
72883;DHT22;61017;37.812;-122.286;2024-01-15T01:09:39;15.30;90.50
72883;DHT22;61017;37.812;-122.286;2024-01-15T01:11:14;15.40;90.60
72883;DHT22;61017;37.812;-122.286;2024-01-15T01:12:45;15.40;90.50
72883;DHT22;61017;37.812;-122.286;2024-01-15T01:14:16;15.40;90.60
72883;DHT22;61017;37.812;-122.286;2024-01-15T01:15:47;15.30;90.50
72883;DHT22;61017;37.812;-122.286;2024-01-15T01:17:18;15.30;90.50
72883;DHT22;61017;37.812;-122.286;2024-01-15T01:18:52;15.40;90.60
72883;DHT22;61017;37.812;-122.286;2024-01-15T01:20:23;15.30;90.50
72883;DHT22;61017;37.812;-122.286;2024-01-15T01:21:54;15.30;90.50
72883;DHT22;61017;37.812;-122.286;2024-01-15T01:23:25;15.40;90.60
72883;DHT22;61017;37.812;-122.286;2024-01-15T01:25:00;15.30;90.50
72883;DHT22;61017;37.812;-122.286;2024-01-15T01:26:32;15.40;90.50
72883;DHT22;61017;37.812;-122.286;2024-01-15T01:28:03;15.40;90.50
72883;DHT22;61017;37.812;-122.286;2024-01-15T01:29:37;15.40;90.50
72883;DHT22;61017;37.812;-122.286;2024-01-15T01:31:08;15.30;90.50
72883;DHT22;61017;37.812;-122.286;2024-01-15T01:32:39;15.30;90.50
72883;DHT22;61017;37.812;-122.286;2024-01-15T01:34:13;15.30;90.50
72883;DHT22;61017;37.812;-122.286;2024-01-15T01:35:46;15.30;90.50
72883;DHT22;61017;37.812;-122.286;2024-01-15T01:37:18;15.30;90.50
72883;DHT22;61017;37.812;-122.286;2024-01-15T01:38:52;15.30;90.50
72883;DHT22;61017;37.812;-122.286;2024-01-15T01:40:23;15.40;90.50
72883;DHT22;61017;37.812;-122.286;2024-01-15T01:41:54;15.40;90.50
72883;DHT22;61017;37.812;-122.286;2024-01-15T01:43:25;15.40;90.30
72883;DHT22;61017;37.812;-122.286;2024-01-15T01:44:56;15.40;90.50
72883;DHT22;61017;37.812;-122.286;2024-01-15T01:46:28;15.40;90.50
72883;DHT22;61017;37.812;-122.286;2024-01-15T01:48:02;15.30;90.50
72883;DHT22;61017;37.812;-122.286;2024-01-15T01:49:34;15.40;90.50
72883;DHT22;61017;37.812;-122.286;2024-01-15T01:51:05;15.30;90.50
72883;DHT22;61017;37.812;-122.286;2024-01-15T01:52:36;15.30;90.40
72883;DHT22;61017;37.812;-122.286;2024-01-15T01:54:08;15.30;90.30
72883;DHT22;61017;37.812;-122.286;2024-01-15T01:55:39;15.40;90.50
72883;DHT22;61017;37.812;-122.286;2024-01-15T01:57:11;15.30;90.40
72883;DHT22;61017;37.812;-122.286;2024-01-15T01:58:43;15.30;90.30
72883;DHT22;61017;37.812;-122.286;2024-01-15T02:00:14;15.30;90.30
72883;DHT22;61017;37.812;-122.286;2024-01-15T02:01:46;15.30;90.40
72883;DHT22;61017;37.812;-122.286;2024-01-15T02:03:17;15.40;90.50
72883;DHT22;61017;37.812;-122.286;2024-01-15T02:04:49;15.30;90.40
72883;DHT22;61017;37.812;-122.286;2024-01-15T02:06:20;15.30;90.40
72883;DHT22;61017;37.812;-122.286;2024-01-15T02:07:52;15.30;90.50
72883;DHT22;61017;37.812;-122.286;2024-01-15T02:09:23;15.30;90.40
72883;DHT22;61017;37.812;-122.286;2024-01-15T02:10:56;15.30;90.40
72883;DHT22;61017;37.812;-122.286;2024-01-15T02:12:27;15.40;90.50
72883;DHT22;61017;37.812;-122.286;2024-01-15T02:13:58;15.30;90.40
72883;DHT22;61017;37.812;-122.286;2024-01-15T02:15:30;15.30;90.40
72883;DHT22;61017;37.812;-122.286;2024-01-15T02:17:01;15.30;90.50
72883;DHT22;61017;37.812;-122.286;2024-01-15T02:18:39;15.30;90.50
72883;DHT22;61017;37.812;-122.286;2024-01-15T02:20:11;15.30;90.50
72883;DHT22;61017;37.812;-122.286;2024-01-15T02:21:42;15.30;90.50
72883;DHT22;61017;37.812;-122.286;2024-01-15T02:23:14;15.30;90.50
72883;DHT22;61017;37.812;-122.286;2024-01-15T02:24:46;15.30;90.50
72883;DHT22;61017;37.812;-122.286;2024-01-15T02:26:17;15.30;90.50
72883;DHT22;61017;37.812;-122.286;2024-01-15T02:27:48;15.30;90.60
72883;DHT22;61017;37.812;-122.286;2024-01-15T02:29:19;15.30;90.50
72883;DHT22;61017;37.812;-122.286;2024-01-15T02:30:51;15.30;90.50
72883;DHT22;61017;37.812;-122.286;2024-01-15T02:32:22;15.30;90.50
72883;DHT22;61017;37.812;-122.286;2024-01-15T02:33:53;15.30;90.50
72883;DHT22;61017;37.812;-122.286;2024-01-15T02:35:25;15.30;90.50
72883;DHT22;61017;37.812;-122.286;2024-01-15T02:36:56;15.30;90.60
72883;DHT22;61017;37.812;-122.286;2024-01-15T02:38:27;15.30;90.50
72883;DHT22;61017;37.812;-122.286;2024-01-15T02:39:59;15.30;90.50
72883;DHT22;61017;37.812;-122.286;2024-01-15T02:41:30;15.30;90.50
72883;DHT22;61017;37.812;-122.286;2024-01-15T02:43:01;15.30;90.40
72883;DHT22;61017;37.812;-122.286;2024-01-15T02:44:33;15.30;90.40
72883;DHT22;61017;37.812;-122.286;2024-01-15T02:46:06;15.30;90.40
72883;DHT22;61017;37.812;-122.286;2024-01-15T02:47:38;15.30;90.50
72883;DHT22;61017;37.812;-122.286;2024-01-15T02:49:09;15.30;90.50
72883;DHT22;61017;37.812;-122.286;2024-01-15T02:50:40;15.30;90.50
72883;DHT22;61017;37.812;-122.286;2024-01-15T02:52:12;15.30;90.50
72883;DHT22;61017;37.812;-122.286;2024-01-15T02:53:44;15.40;90.50
72883;DHT22;61017;37.812;-122.286;2024-01-15T02:55:16;15.30;90.50
72883;DHT22;61017;37.812;-122.286;2024-01-15T02:56:47;15.30;90.40
72883;DHT22;61017;37.812;-122.286;2024-01-15T02:58:18;15.30;90.40
72883;DHT22;61017;37.812;-122.286;2024-01-15T02:59:49;15.40;90.50
72883;DHT22;61017;37.812;-122.286;2024-01-15T03:01:21;15.30;90.50
72883;DHT22;61017;37.812;-122.286;2024-01-15T03:02:52;15.40;90.50
72883;DHT22;61017;37.812;-122.286;2024-01-15T03:04:23;15.30;90.50
72883;DHT22;61017;37.812;-122.286;2024-01-15T03:05:54;15.30;90.50
72883;DHT22;61017;37.812;-122.286;2024-01-15T03:07:25;15.30;90.60
72883;DHT22;61017;37.812;-122.286;2024-01-15T03:08:56;15.30;90.60
72883;DHT22;61017;37.812;-122.286;2024-01-15T03:10:28;15.30;90.70
72883;DHT22;61017;37.812;-122.286;2024-01-15T03:11:59;15.30;90.60
72883;DHT22;61017;37.812;-122.286;2024-01-15T03:13:30;15.30;90.70
72883;DHT22;61017;37.812;-122.286;2024-01-15T03:15:02;15.30;90.70
72883;DHT22;61017;37.812;-122.286;2024-01-15T03:16:33;15.30;90.70
72883;DHT22;61017;37.812;-122.286;2024-01-15T03:18:04;15.30;90.70
72883;DHT22;61017;37.812;-122.286;2024-01-15T03:19:36;15.30;90.70
72883;DHT22;61017;37.812;-122.286;2024-01-15T03:21:07;15.30;90.60
72883;DHT22;61017;37.812;-122.286;2024-01-15T03:22:38;15.30;90.60
72883;DHT22;61017;37.812;-122.286;2024-01-15T03:24:09;15.30;90.60
72883;DHT22;61017;37.812;-122.286;2024-01-15T03:25:40;15.30;90.60
72883;DHT22;61017;37.812;-122.286;2024-01-15T03:27:11;15.30;90.60
72883;DHT22;61017;37.812;-122.286;2024-01-15T03:28:42;15.30;90.60
72883;DHT22;61017;37.812;-122.286;2024-01-15T03:30:14;15.30;90.60
72883;DHT22;61017;37.812;-122.286;2024-01-15T03:31:45;15.30;90.50
72883;DHT22;61017;37.812;-122.286;2024-01-15T03:33:16;15.30;90.60
72883;DHT22;61017;37.812;-122.286;2024-01-15T03:34:47;15.30;90.60
72883;DHT22;61017;37.812;-122.286;2024-01-15T03:36:18;15.30;90.50
72883;DHT22;61017;37.812;-122.286;2024-01-15T03:37:49;15.30;90.60
72883;DHT22;61017;37.812;-122.286;2024-01-15T03:39:20;15.30;90.60
72883;DHT22;61017;37.812;-122.286;2024-01-15T03:40:52;15.30;90.60
72883;DHT22;61017;37.812;-122.286;2024-01-15T03:42:23;15.30;90.60
72883;DHT22;61017;37.812;-122.286;2024-01-15T03:43:54;15.30;90.70
72883;DHT22;61017;37.812;-122.286;2024-01-15T03:45:25;15.30;90.60
72883;DHT22;61017;37.812;-122.286;2024-01-15T03:46:56;15.30;90.50
72883;DHT22;61017;37.812;-122.286;2024-01-15T03:48:27;15.30;90.50
72883;DHT22;61017;37.812;-122.286;2024-01-15T03:49:58;15.30;90.50
72883;DHT22;61017;37.812;-122.286;2024-01-15T03:51:29;15.30;90.60
72883;DHT22;61017;37.812;-122.286;2024-01-15T03:53:00;15.30;90.50
72883;DHT22;61017;37.812;-122.286;2024-01-15T03:54:31;15.30;90.50
72883;DHT22;61017;37.812;-122.286;2024-01-15T03:56:03;15.30;90.60
72883;DHT22;61017;37.812;-122.286;2024-01-15T03:57:34;15.30;90.40
72883;DHT22;61017;37.812;-122.286;2024-01-15T03:59:05;15.30;90.50
72883;DHT22;61017;37.812;-122.286;2024-01-15T04:00:36;15.30;90.50
72883;DHT22;61017;37.812;-122.286;2024-01-15T04:02:07;15.30;90.50
72883;DHT22;61017;37.812;-122.286;2024-01-15T04:03:38;15.30;90.50
72883;DHT22;61017;37.812;-122.286;2024-01-15T04:05:10;15.30;90.50
72883;DHT22;61017;37.812;-122.286;2024-01-15T04:06:41;15.30;90.50
72883;DHT22;61017;37.812;-122.286;2024-01-15T04:08:12;15.30;90.50
72883;DHT22;61017;37.812;-122.286;2024-01-15T04:09:43;15.30;90.60
72883;DHT22;61017;37.812;-122.286;2024-01-15T04:11:14;15.30;90.50
72883;DHT22;61017;37.812;-122.286;2024-01-15T04:12:45;15.30;90.50
72883;DHT22;61017;37.812;-122.286;2024-01-15T04:14:16;15.30;90.50
72883;DHT22;61017;37.812;-122.286;2024-01-15T04:15:47;15.30;90.50
72883;DHT22;61017;37.812;-122.286;2024-01-15T04:17:18;15.30;90.50
72883;DHT22;61017;37.812;-122.286;2024-01-15T04:18:50;15.30;90.60
72883;DHT22;61017;37.812;-122.286;2024-01-15T04:20:21;15.30;90.50
72883;DHT22;61017;37.812;-122.286;2024-01-15T04:21:52;15.30;90.50
72883;DHT22;61017;37.812;-122.286;2024-01-15T04:23:23;15.30;90.40
72883;DHT22;61017;37.812;-122.286;2024-01-15T04:24:54;15.30;90.40
72883;DHT22;61017;37.812;-122.286;2024-01-15T04:26:25;15.30;90.50
72883;DHT22;61017;37.812;-122.286;2024-01-15T04:27:56;15.30;90.40
72883;DHT22;61017;37.812;-122.286;2024-01-15T04:29:28;15.30;90.50
72883;DHT22;61017;37.812;-122.286;2024-01-15T04:30:59;15.30;90.40
72883;DHT22;61017;37.812;-122.286;2024-01-15T04:32:30;15.30;90.50
72883;DHT22;61017;37.812;-122.286;2024-01-15T04:34:01;15.30;90.40
72883;DHT22;61017;37.812;-122.286;2024-01-15T04:35:32;15.30;90.40
72883;DHT22;61017;37.812;-122.286;2024-01-15T04:37:03;15.30;90.40
72883;DHT22;61017;37.812;-122.286;2024-01-15T04:38:35;15.30;90.40
72883;DHT22;61017;37.812;-122.286;2024-01-15T04:40:06;15.30;90.40
72883;DHT22;61017;37.812;-122.286;2024-01-15T04:41:37;15.30;90.40
72883;DHT22;61017;37.812;-122.286;2024-01-15T04:43:09;15.30;90.40
72883;DHT22;61017;37.812;-122.286;2024-01-15T04:44:40;15.30;90.40
72883;DHT22;61017;37.812;-122.286;2024-01-15T04:46:11;15.30;90.40
72883;DHT22;61017;37.812;-122.286;2024-01-15T04:47:42;15.30;90.40
72883;DHT22;61017;37.812;-122.286;2024-01-15T04:49:13;15.30;90.40
72883;DHT22;61017;37.812;-122.286;2024-01-15T04:50:44;15.30;90.40
72883;DHT22;61017;37.812;-122.286;2024-01-15T04:52:15;15.30;90.40
72883;DHT22;61017;37.812;-122.286;2024-01-15T04:53:46;15.30;90.40
72883;DHT22;61017;37.812;-122.286;2024-01-15T04:55:18;15.30;90.40
72883;DHT22;61017;37.812;-122.286;2024-01-15T04:56:49;15.30;90.30
72883;DHT22;61017;37.812;-122.286;2024-01-15T04:58:20;15.30;90.30
72883;DHT22;61017;37.812;-122.286;2024-01-15T04:59:54;15.30;90.30
72883;DHT22;61017;37.812;-122.286;2024-01-15T05:01:25;15.30;90.40
72883;DHT22;61017;37.812;-122.286;2024-01-15T05:03:00;15.30;90.40
72883;DHT22;61017;37.812;-122.286;2024-01-15T05:04:31;15.30;90.30
72883;DHT22;61017;37.812;-122.286;2024-01-15T05:06:02;15.30;90.40
72883;DHT22;61017;37.812;-122.286;2024-01-15T05:07:36;15.30;90.30
72883;DHT22;61017;37.812;-122.286;2024-01-15T05:09:07;15.30;90.30
72883;DHT22;61017;37.812;-122.286;2024-01-15T05:10:38;15.30;90.30
72883;DHT22;61017;37.812;-122.286;2024-01-15T05:12:09;15.30;90.20
72883;DHT22;61017;37.812;-122.286;2024-01-15T05:13:40;15.30;90.20
72883;DHT22;61017;37.812;-122.286;2024-01-15T05:15:11;15.30;90.20
72883;DHT22;61017;37.812;-122.286;2024-01-15T05:16:48;15.30;90.20
72883;DHT22;61017;37.812;-122.286;2024-01-15T05:18:19;15.30;90.20
72883;DHT22;61017;37.812;-122.286;2024-01-15T05:19:50;15.30;90.20
72883;DHT22;61017;37.812;-122.286;2024-01-15T05:21:22;15.30;90.10
72883;DHT22;61017;37.812;-122.286;2024-01-15T05:22:53;15.30;90.20
72883;DHT22;61017;37.812;-122.286;2024-01-15T05:24:24;15.30;90.10
72883;DHT22;61017;37.812;-122.286;2024-01-15T05:25:55;15.30;90.00
72883;DHT22;61017;37.812;-122.286;2024-01-15T05:27:26;15.30;90.10
72883;DHT22;61017;37.812;-122.286;2024-01-15T05:28:57;15.30;90.10
72883;DHT22;61017;37.812;-122.286;2024-01-15T05:30:28;15.30;90.00
72883;DHT22;61017;37.812;-122.286;2024-01-15T05:31:59;15.30;90.00
72883;DHT22;61017;37.812;-122.286;2024-01-15T05:33:30;15.30;90.00
72883;DHT22;61017;37.812;-122.286;2024-01-15T05:35:01;15.30;90.10
72883;DHT22;61017;37.812;-122.286;2024-01-15T05:36:32;15.30;90.00
72883;DHT22;61017;37.812;-122.286;2024-01-15T05:38:03;15.30;90.10
72883;DHT22;61017;37.812;-122.286;2024-01-15T05:39:34;15.30;90.00
72883;DHT22;61017;37.812;-122.286;2024-01-15T05:41:05;15.30;90.00
72883;DHT22;61017;37.812;-122.286;2024-01-15T05:42:37;15.30;90.00
72883;DHT22;61017;37.812;-122.286;2024-01-15T05:44:08;15.30;90.40
72883;DHT22;61017;37.812;-122.286;2024-01-15T05:45:42;15.30;89.90
72883;DHT22;61017;37.812;-122.286;2024-01-15T05:47:13;15.30;90.00
72883;DHT22;61017;37.812;-122.286;2024-01-15T05:48:44;15.30;90.00
72883;DHT22;61017;37.812;-122.286;2024-01-15T05:50:15;15.30;89.90
72883;DHT22;61017;37.812;-122.286;2024-01-15T05:51:46;15.30;90.10
72883;DHT22;61017;37.812;-122.286;2024-01-15T05:53:17;15.30;90.00
72883;DHT22;61017;37.812;-122.286;2024-01-15T05:54:49;15.30;90.00
72883;DHT22;61017;37.812;-122.286;2024-01-15T05:56:20;15.30;89.80
72883;DHT22;61017;37.812;-122.286;2024-01-15T05:57:51;15.30;90.00
72883;DHT22;61017;37.812;-122.286;2024-01-15T05:59:22;15.30;89.80
72883;DHT22;61017;37.812;-122.286;2024-01-15T06:00:53;15.30;89.90
72883;DHT22;61017;37.812;-122.286;2024-01-15T06:02:24;15.30;89.80
72883;DHT22;61017;37.812;-122.286;2024-01-15T06:03:55;15.30;89.70
72883;DHT22;61017;37.812;-122.286;2024-01-15T06:05:26;15.30;89.80
72883;DHT22;61017;37.812;-122.286;2024-01-15T06:06:58;15.30;89.80
72883;DHT22;61017;37.812;-122.286;2024-01-15T06:08:29;15.30;89.90
72883;DHT22;61017;37.812;-122.286;2024-01-15T06:10:00;15.30;90.00
72883;DHT22;61017;37.812;-122.286;2024-01-15T06:11:31;15.30;89.70
72883;DHT22;61017;37.812;-122.286;2024-01-15T06:13:02;15.30;90.00
72883;DHT22;61017;37.812;-122.286;2024-01-15T06:14:33;15.30;89.70
72883;DHT22;61017;37.812;-122.286;2024-01-15T06:16:11;15.30;89.60
72883;DHT22;61017;37.812;-122.286;2024-01-15T06:17:42;15.30;89.60
72883;DHT22;61017;37.812;-122.286;2024-01-15T06:19:14;15.30;89.60
72883;DHT22;61017;37.812;-122.286;2024-01-15T06:20:46;15.30;89.70
72883;DHT22;61017;37.812;-122.286;2024-01-15T06:22:17;15.30;90.00
72883;DHT22;61017;37.812;-122.286;2024-01-15T06:23:48;15.30;89.60
72883;DHT22;61017;37.812;-122.286;2024-01-15T06:25:19;15.30;89.70
72883;DHT22;61017;37.812;-122.286;2024-01-15T06:26:50;15.30;89.60
72883;DHT22;61017;37.812;-122.286;2024-01-15T06:28:21;15.30;90.00
72883;DHT22;61017;37.812;-122.286;2024-01-15T06:29:53;15.30;89.70
72883;DHT22;61017;37.812;-122.286;2024-01-15T06:31:25;15.30;89.60
72883;DHT22;61017;37.812;-122.286;2024-01-15T06:32:56;15.30;89.60
72883;DHT22;61017;37.812;-122.286;2024-01-15T06:34:27;15.30;89.60
72883;DHT22;61017;37.812;-122.286;2024-01-15T06:35:59;15.30;89.50
72883;DHT22;61017;37.812;-122.286;2024-01-15T06:37:30;15.30;89.60
72883;DHT22;61017;37.812;-122.286;2024-01-15T06:39:01;15.30;89.70
72883;DHT22;61017;37.812;-122.286;2024-01-15T06:40:32;15.30;90.00
72883;DHT22;61017;37.812;-122.286;2024-01-15T06:42:03;15.30;90.00
72883;DHT22;61017;37.812;-122.286;2024-01-15T06:43:34;15.30;89.80
72883;DHT22;61017;37.812;-122.286;2024-01-15T06:45:06;15.30;89.50
72883;DHT22;61017;37.812;-122.286;2024-01-15T06:46:41;15.30;89.50
72883;DHT22;61017;37.812;-122.286;2024-01-15T06:48:12;15.30;89.50
72883;DHT22;61017;37.812;-122.286;2024-01-15T06:49:44;15.30;89.50
72883;DHT22;61017;37.812;-122.286;2024-01-15T06:51:16;15.30;89.40
72883;DHT22;61017;37.812;-122.286;2024-01-15T06:52:47;15.30;89.50
72883;DHT22;61017;37.812;-122.286;2024-01-15T06:54:18;15.30;89.70
72883;DHT22;61017;37.812;-122.286;2024-01-15T06:55:49;15.30;89.40
72883;DHT22;61017;37.812;-122.286;2024-01-15T06:57:20;15.30;89.60
72883;DHT22;61017;37.812;-122.286;2024-01-15T06:59:15;15.30;89.40
72883;DHT22;61017;37.812;-122.286;2024-01-15T07:00:55;15.30;89.50
72883;DHT22;61017;37.812;-122.286;2024-01-15T07:02:26;15.30;89.40
72883;DHT22;61017;37.812;-122.286;2024-01-15T07:03:58;15.30;89.50
72883;DHT22;61017;37.812;-122.286;2024-01-15T07:05:29;15.30;89.30
72883;DHT22;61017;37.812;-122.286;2024-01-15T07:07:00;15.30;89.40
72883;DHT22;61017;37.812;-122.286;2024-01-15T07:08:31;15.30;89.20
72883;DHT22;61017;37.812;-122.286;2024-01-15T07:10:03;15.30;89.80
72883;DHT22;61017;37.812;-122.286;2024-01-15T07:11:34;15.30;89.80
72883;DHT22;61017;37.812;-122.286;2024-01-15T07:13:05;15.30;89.30
72883;DHT22;61017;37.812;-122.286;2024-01-15T07:14:36;15.30;89.20
72883;DHT22;61017;37.812;-122.286;2024-01-15T07:16:07;15.30;89.20
72883;DHT22;61017;37.812;-122.286;2024-01-15T07:17:38;15.30;89.30
72883;DHT22;61017;37.812;-122.286;2024-01-15T07:19:09;15.30;89.20
72883;DHT22;61017;37.812;-122.286;2024-01-15T07:20:40;15.30;89.50
72883;DHT22;61017;37.812;-122.286;2024-01-15T07:22:12;15.30;89.30
72883;DHT22;61017;37.812;-122.286;2024-01-15T07:23:43;15.30;89.30
72883;DHT22;61017;37.812;-122.286;2024-01-15T07:25:15;15.30;89.20
72883;DHT22;61017;37.812;-122.286;2024-01-15T07:26:46;15.30;89.30
72883;DHT22;61017;37.812;-122.286;2024-01-15T07:28:17;15.30;89.40
72883;DHT22;61017;37.812;-122.286;2024-01-15T07:29:48;15.30;89.20
72883;DHT22;61017;37.812;-122.286;2024-01-15T07:31:19;15.30;89.40
72883;DHT22;61017;37.812;-122.286;2024-01-15T07:32:50;15.30;89.70
72883;DHT22;61017;37.812;-122.286;2024-01-15T07:34:21;15.30;89.20
72883;DHT22;61017;37.812;-122.286;2024-01-15T07:35:52;15.40;89.30
72883;DHT22;61017;37.812;-122.286;2024-01-15T07:37:23;15.30;89.10
72883;DHT22;61017;37.812;-122.286;2024-01-15T07:38:55;15.30;89.50
72883;DHT22;61017;37.812;-122.286;2024-01-15T07:40:26;15.30;89.00
72883;DHT22;61017;37.812;-122.286;2024-01-15T07:41:57;15.30;89.00
72883;DHT22;61017;37.812;-122.286;2024-01-15T07:43:28;15.30;89.10
72883;DHT22;61017;37.812;-122.286;2024-01-15T07:44:59;15.30;89.00
72883;DHT22;61017;37.812;-122.286;2024-01-15T07:46:30;15.30;89.10
72883;DHT22;61017;37.812;-122.286;2024-01-15T07:48:01;15.30;89.00
72883;DHT22;61017;37.812;-122.286;2024-01-15T07:49:32;15.30;89.10
72883;DHT22;61017;37.812;-122.286;2024-01-15T07:51:03;15.30;89.10
72883;DHT22;61017;37.812;-122.286;2024-01-15T07:52:34;15.30;89.10
72883;DHT22;61017;37.812;-122.286;2024-01-15T07:54:05;15.30;89.00
72883;DHT22;61017;37.812;-122.286;2024-01-15T07:55:37;15.30;89.10
72883;DHT22;61017;37.812;-122.286;2024-01-15T07:57:08;15.30;89.10
72883;DHT22;61017;37.812;-122.286;2024-01-15T07:58:39;15.30;89.00
72883;DHT22;61017;37.812;-122.286;2024-01-15T08:00:10;15.30;89.00
72883;DHT22;61017;37.812;-122.286;2024-01-15T08:01:41;15.30;89.00
72883;DHT22;61017;37.812;-122.286;2024-01-15T08:03:12;15.30;89.10
72883;DHT22;61017;37.812;-122.286;2024-01-15T08:04:43;15.30;89.00
72883;DHT22;61017;37.812;-122.286;2024-01-15T08:06:14;15.30;89.00
72883;DHT22;61017;37.812;-122.286;2024-01-15T08:07:46;15.30;88.90
72883;DHT22;61017;37.812;-122.286;2024-01-15T08:09:17;15.30;88.90
72883;DHT22;61017;37.812;-122.286;2024-01-15T08:10:48;15.30;88.90
72883;DHT22;61017;37.812;-122.286;2024-01-15T08:12:19;15.30;88.90
72883;DHT22;61017;37.812;-122.286;2024-01-15T08:13:50;15.30;88.90
72883;DHT22;61017;37.812;-122.286;2024-01-15T08:15:22;15.30;88.90
72883;DHT22;61017;37.812;-122.286;2024-01-15T08:16:54;15.30;89.00
72883;DHT22;61017;37.812;-122.286;2024-01-15T08:18:25;15.30;89.10
72883;DHT22;61017;37.812;-122.286;2024-01-15T08:19:56;15.30;89.20
72883;DHT22;61017;37.812;-122.286;2024-01-15T08:21:27;15.30;88.90
72883;DHT22;61017;37.812;-122.286;2024-01-15T08:22:58;15.30;89.10
72883;DHT22;61017;37.812;-122.286;2024-01-15T08:24:29;15.30;88.80
72883;DHT22;61017;37.812;-122.286;2024-01-15T08:26:00;15.30;88.90
72883;DHT22;61017;37.812;-122.286;2024-01-15T08:27:31;15.30;88.80
72883;DHT22;61017;37.812;-122.286;2024-01-15T08:29:02;15.30;88.80
72883;DHT22;61017;37.812;-122.286;2024-01-15T08:30:34;15.30;89.10
72883;DHT22;61017;37.812;-122.286;2024-01-15T08:32:05;15.30;88.80
72883;DHT22;61017;37.812;-122.286;2024-01-15T08:33:36;15.30;88.90
72883;DHT22;61017;37.812;-122.286;2024-01-15T08:35:08;15.30;88.90
72883;DHT22;61017;37.812;-122.286;2024-01-15T08:36:39;15.30;89.20
72883;DHT22;61017;37.812;-122.286;2024-01-15T08:38:10;15.30;88.90
72883;DHT22;61017;37.812;-122.286;2024-01-15T08:39:41;15.30;89.00
72883;DHT22;61017;37.812;-122.286;2024-01-15T08:41:12;15.30;88.80
72883;DHT22;61017;37.812;-122.286;2024-01-15T08:42:43;15.30;89.00
72883;DHT22;61017;37.812;-122.286;2024-01-15T08:44:15;15.30;88.60
72883;DHT22;61017;37.812;-122.286;2024-01-15T08:45:46;15.30;88.60
72883;DHT22;61017;37.812;-122.286;2024-01-15T08:47:17;15.30;88.90
72883;DHT22;61017;37.812;-122.286;2024-01-15T08:48:48;15.30;88.60
72883;DHT22;61017;37.812;-122.286;2024-01-15T08:50:19;15.30;88.70
72883;DHT22;61017;37.812;-122.286;2024-01-15T08:51:50;15.30;88.80
72883;DHT22;61017;37.812;-122.286;2024-01-15T08:53:21;15.30;89.00
72883;DHT22;61017;37.812;-122.286;2024-01-15T08:54:52;15.30;88.60
72883;DHT22;61017;37.812;-122.286;2024-01-15T08:56:23;15.30;88.60
72883;DHT22;61017;37.812;-122.286;2024-01-15T08:57:54;15.30;88.90
72883;DHT22;61017;37.812;-122.286;2024-01-15T08:59:25;15.30;88.70
72883;DHT22;61017;37.812;-122.286;2024-01-15T09:00:56;15.20;88.50
72883;DHT22;61017;37.812;-122.286;2024-01-15T09:02:28;15.20;88.60
72883;DHT22;61017;37.812;-122.286;2024-01-15T09:03:59;15.20;88.80
72883;DHT22;61017;37.812;-122.286;2024-01-15T09:05:30;15.30;88.70
72883;DHT22;61017;37.812;-122.286;2024-01-15T09:07:01;15.20;88.50
72883;DHT22;61017;37.812;-122.286;2024-01-15T09:08:32;15.20;88.50
72883;DHT22;61017;37.812;-122.286;2024-01-15T09:10:03;15.20;88.50
72883;DHT22;61017;37.812;-122.286;2024-01-15T09:11:34;15.20;88.50